createdAt,value
2023-04-01T00:01:18.430Z,3.53
2023-04-01T00:03:45.438Z,3.83
2023-04-01T00:08:39.705Z,3.80
2023-04-01T00:11:06.019Z,3.60
2023-04-01T00:13:32.376Z,4.22
2023-04-01T00:16:00.143Z,3.78
2023-04-01T00:18:26.875Z,4.43
2023-04-01T00:20:53.785Z,4.05
2023-04-01T00:23:20.245Z,3.72
2023-04-01T00:25:46.895Z,3.58
2023-04-01T00:28:13.558Z,4.10
2023-04-01T00:30:39.864Z,3.80
2023-04-01T00:33:06.246Z,4.10
2023-04-01T00:35:32.812Z,4.15
2023-04-01T00:37:59.836Z,3.83
2023-04-01T00:40:33.425Z,3.97
2023-04-01T00:43:00.663Z,4.13
2023-04-01T00:45:30.322Z,4.40
2023-04-01T00:47:59.958Z,4.32
2023-04-01T00:50:27.811Z,4.07
2023-04-01T00:52:54.540Z,4.45
2023-04-01T00:55:23.995Z,4.20
2023-04-01T00:57:54.456Z,4.00
2023-04-01T01:00:20.833Z,3.90
2023-04-01T01:02:48.783Z,4.05
2023-04-01T01:05:16.904Z,4.15
2023-04-01T01:07:50.297Z,3.92
2023-04-01T01:10:35.669Z,4.32
2023-04-01T01:13:59.370Z,3.95
2023-04-01T01:16:29.320Z,4.32
2023-04-01T01:19:17.252Z,4.65
2023-04-01T01:21:52.361Z,4.70
2023-04-01T01:24:30.232Z,4.30
2023-04-01T01:27:10.006Z,4.18
2023-04-01T01:29:42.916Z,5.00
2023-04-01T01:32:17.692Z,4.65
2023-04-01T01:35:22.131Z,5.20
2023-04-01T01:37:52.871Z,4.85
2023-04-01T01:40:20.523Z,4.75
2023-04-01T01:42:52.741Z,4.88
2023-04-01T01:45:22.413Z,5.60
2023-04-01T01:47:50.808Z,5.10
2023-04-01T01:50:18.196Z,5.03
2023-04-01T01:52:44.498Z,5.50
2023-04-01T01:55:27.529Z,5.35
2023-04-01T01:57:55.343Z,4.40
2023-04-01T02:00:22.400Z,5.47
2023-04-01T02:02:50.430Z,4.68
2023-04-01T02:05:24.204Z,5.25
2023-04-01T02:08:02.126Z,5.30
2023-04-01T02:10:31.997Z,4.78
2023-04-01T02:13:03.451Z,4.93
2023-04-01T02:15:34.817Z,5.32
2023-04-01T02:18:02.165Z,5.10
2023-04-01T02:20:30.516Z,4.82
2023-04-01T02:22:59.010Z,5.20
2023-04-01T02:25:29.483Z,4.63
2023-04-01T02:27:58.974Z,5.20
2023-04-01T02:30:28.477Z,5.32
2023-04-01T02:32:57.700Z,5.63
2023-04-01T02:35:25.614Z,5.97
2023-04-01T02:37:54.179Z,5.43
2023-04-01T02:40:20.912Z,4.72
2023-04-01T02:42:47.304Z,5.82
2023-04-01T02:45:14.805Z,5.88
2023-04-01T02:47:41.439Z,5.72
2023-04-01T02:50:08.935Z,5.88
2023-04-01T02:52:35.379Z,5.88
2023-04-01T02:55:01.799Z,6.15
2023-04-01T02:57:28.189Z,5.78
2023-04-01T02:59:54.591Z,6.20
2023-04-01T03:02:20.965Z,5.82
2023-04-01T03:04:47.383Z,6.97
2023-04-01T03:07:14.037Z,6.40
2023-04-01T03:09:40.409Z,6.40
2023-04-01T03:12:07.360Z,6.47
2023-04-01T03:14:33.665Z,7.35
2023-04-01T03:17:00.064Z,6.68
2023-04-01T03:19:26.504Z,6.60
2023-04-01T03:21:52.909Z,5.97
2023-04-01T03:24:19.261Z,5.68
2023-04-01T03:26:45.535Z,6.45
2023-04-01T03:29:11.863Z,5.80
2023-04-01T03:31:38.177Z,6.38
2023-04-01T03:34:04.481Z,6.95
2023-04-01T03:36:30.825Z,6.55
2023-04-01T03:38:57.143Z,6.63
2023-04-01T03:41:23.503Z,7.13
2023-04-01T03:43:49.803Z,6.82
2023-04-01T03:46:20.334Z,7.03
2023-04-01T03:48:47.552Z,7.10
2023-04-01T03:51:14.164Z,6.15
2023-04-01T03:53:40.497Z,6.65
2023-04-01T03:56:08.379Z,6.00
2023-04-01T03:58:35.815Z,6.47
2023-04-01T04:01:02.191Z,6.80
2023-04-01T04:03:28.623Z,6.88
2023-04-01T04:05:55.007Z,6.40
2023-04-01T04:08:21.354Z,7.07
2023-04-01T04:10:47.660Z,7.00
2023-04-01T04:13:13.986Z,7.00
2023-04-01T04:15:40.347Z,6.80
2023-04-01T04:18:06.787Z,7.55
2023-04-01T04:20:33.092Z,7.15
2023-04-01T04:23:01.405Z,6.95
2023-04-01T04:25:27.730Z,6.43
2023-04-01T04:27:54.023Z,8.13
2023-04-01T04:30:20.392Z,7.28
2023-04-01T04:32:46.705Z,7.55
2023-04-01T04:35:13.141Z,7.93
2023-04-01T04:37:39.451Z,7.70
2023-04-01T04:40:06.438Z,7.03
2023-04-01T04:42:32.780Z,7.47
2023-04-01T04:44:59.133Z,8.25
2023-04-01T04:47:25.417Z,7.28
2023-04-01T04:49:51.785Z,7.85
2023-04-01T04:52:18.066Z,7.28
2023-04-01T04:54:44.408Z,7.53
2023-04-01T04:57:10.720Z,8.20
2023-04-01T04:59:37.045Z,7.28
2023-04-01T05:02:03.382Z,8.40
2023-04-01T05:04:29.692Z,7.40
2023-04-01T05:06:56.011Z,7.47
2023-04-01T05:09:22.352Z,7.13
2023-04-01T05:11:48.765Z,7.43
2023-04-01T05:14:16.415Z,6.88
2023-04-01T05:16:42.830Z,7.82
2023-04-01T05:19:09.222Z,6.50
2023-04-01T05:21:35.625Z,7.00
2023-04-01T05:24:01.931Z,7.20
2023-04-01T05:26:28.236Z,7.10
2023-04-01T05:28:54.571Z,8.07
2023-04-01T05:31:21.107Z,7.53
2023-04-01T05:33:47.541Z,6.88
2023-04-01T05:36:16.754Z,7.95
2023-04-01T05:38:43.429Z,7.93
2023-04-01T05:41:09.844Z,7.28
2023-04-01T05:43:40.258Z,7.00
2023-04-01T05:46:06.879Z,7.50
2023-04-01T05:48:34.888Z,7.10
2023-04-01T05:51:01.820Z,6.90
2023-04-01T05:53:28.124Z,7.30
2023-04-01T05:55:54.429Z,7.13
2023-04-01T05:58:20.743Z,6.93
2023-04-01T06:00:47.904Z,6.15
2023-04-01T06:03:14.546Z,6.65
2023-04-01T06:05:44.132Z,6.78
2023-04-01T06:08:20.576Z,6.38
2023-04-01T06:10:50.120Z,6.43
2023-04-01T06:13:25.607Z,6.63
2023-04-01T06:16:06.467Z,6.53
2023-04-01T06:18:51.118Z,6.90
2023-04-01T06:21:38.040Z,6.43
2023-04-01T06:24:43.917Z,6.50
2023-04-01T06:27:28.735Z,11.18
2023-04-01T06:30:25.445Z,6.80
2023-04-01T06:32:54.866Z,6.38
2023-04-01T06:35:35.966Z,6.68
2023-04-01T06:38:27.323Z,11.68
2023-04-01T06:41:26.157Z,7.43
2023-04-01T06:44:01.276Z,6.32
2023-04-01T06:46:48.018Z,6.57
2023-04-01T06:49:49.244Z,6.30
2023-04-01T06:52:24.436Z,5.07
2023-04-01T06:54:59.539Z,6.10
2023-04-01T06:57:44.169Z,5.60
2023-04-01T07:00:33.014Z,5.43
2023-04-01T07:03:18.796Z,5.32
2023-04-01T07:05:45.148Z,4.88
2023-04-01T07:08:16.936Z,5.45
2023-04-01T07:10:59.242Z,4.88
2023-04-01T07:13:30.104Z,5.60
2023-04-01T07:16:36.944Z,5.70
2023-04-01T07:19:45.254Z,5.85
2023-04-01T07:22:26.779Z,6.72
2023-04-01T07:24:54.944Z,7.05
2023-04-01T07:27:21.328Z,6.88
2023-04-01T07:29:48.012Z,6.68
2023-04-01T07:32:20.434Z,6.93
2023-04-01T07:34:55.257Z,5.70
2023-04-01T07:37:21.510Z,6.40
2023-04-01T07:40:12.211Z,6.95
2023-04-01T07:43:43.367Z,6.18
2023-04-01T07:46:24.816Z,5.55
2023-04-01T07:49:04.776Z,5.53
2023-04-01T07:51:37.027Z,5.18
2023-04-01T07:54:18.546Z,5.35
2023-04-01T07:56:55.562Z,5.30
2023-04-01T07:59:40.043Z,7.22
2023-04-01T08:02:48.039Z,7.40
2023-04-01T08:05:32.891Z,8.45
2023-04-01T08:08:20.945Z,7.90
2023-04-01T08:11:14.683Z,9.55
2023-04-01T08:13:52.673Z,8.98
2023-04-01T08:16:29.721Z,8.80
2023-04-01T08:18:55.987Z,10.65
2023-04-01T08:21:29.909Z,9.93
2023-04-01T08:24:01.110Z,10.65
2023-04-01T08:26:38.689Z,9.65
2023-04-01T08:29:07.515Z,10.10
2023-04-01T08:31:46.646Z,9.65
2023-04-01T08:34:22.505Z,10.23
2023-04-01T08:37:00.697Z,9.82
2023-04-01T08:39:40.153Z,9.90
2023-04-01T08:42:43.823Z,10.65
2023-04-01T08:45:45.609Z,10.25
2023-04-01T08:48:45.766Z,10.35
2023-04-01T08:52:01.627Z,9.48
2023-04-01T08:55:05.505Z,8.70
2023-04-01T08:57:51.732Z,8.50
2023-04-01T09:00:41.202Z,8.80
2023-04-01T09:03:21.002Z,9.27
2023-04-01T09:05:57.497Z,9.75
2023-04-01T09:08:32.343Z,9.23
2023-04-01T09:11:30.515Z,10.25
2023-04-01T09:13:56.780Z,9.35
2023-04-01T09:16:40.744Z,9.95
2023-04-01T09:19:17.842Z,9.40
2023-04-01T09:22:21.102Z,8.70
2023-04-01T09:25:16.195Z,8.82
2023-04-01T09:28:03.829Z,9.60
2023-04-01T09:31:17.896Z,10.70
2023-04-01T09:34:11.893Z,9.35
2023-04-01T09:36:41.199Z,9.30
2023-04-01T09:39:35.582Z,10.05
2023-04-01T09:42:01.850Z,10.68
2023-04-01T09:44:37.752Z,10.25
2023-04-01T09:47:27.217Z,10.52
2023-04-01T09:50:27.329Z,10.00
2023-04-01T09:53:25.832Z,10.20
2023-04-01T09:56:34.392Z,9.80
2023-04-01T09:59:00.707Z,10.23
2023-04-01T10:01:48.687Z,9.35
2023-04-01T10:04:42.688Z,9.10
2023-04-01T10:07:30.794Z,8.77
2023-04-01T10:10:19.020Z,8.23
2023-04-01T10:12:51.376Z,7.70
2023-04-01T10:15:20.676Z,7.78
2023-04-01T10:18:05.291Z,8.27
2023-04-01T10:20:54.783Z,8.15
2023-04-01T10:23:42.515Z,9.25
2023-04-01T10:26:08.747Z,7.82
2023-04-01T10:29:02.819Z,8.13
2023-04-01T10:32:10.476Z,7.95
2023-04-01T10:34:57.008Z,7.65
2023-04-01T10:37:54.217Z,6.65
2023-04-01T10:40:47.588Z,7.18
2023-04-01T10:43:35.506Z,6.28
2023-04-01T10:46:04.499Z,7.28
2023-04-01T10:49:09.280Z,6.22
2023-04-01T10:51:44.811Z,5.75
2023-04-01T10:54:38.703Z,6.60
2023-04-01T10:57:30.068Z,6.57
2023-04-01T11:03:07.127Z,5.72
2023-04-01T11:05:39.419Z,5.30
2023-04-01T11:08:29.904Z,5.47
2023-04-01T11:11:33.866Z,5.00
2023-04-01T11:14:21.886Z,4.05
2023-04-01T11:17:23.510Z,3.60
2023-04-01T11:20:19.646Z,3.47
2023-04-01T11:23:04.788Z,3.22
2023-04-01T11:25:52.874Z,3.35
2023-04-01T11:28:28.288Z,3.25
2023-04-01T11:30:57.638Z,3.50
2023-04-01T11:33:34.212Z,3.40
2023-04-01T11:36:10.329Z,2.88
2023-04-01T11:38:59.836Z,3.10
2023-04-01T11:41:46.780Z,3.00
2023-04-01T11:44:22.158Z,3.25
2023-04-01T11:47:15.020Z,3.08
2023-04-01T11:50:21.596Z,2.80
2023-04-01T11:53:30.989Z,2.25
2023-04-01T11:56:15.621Z,2.78
2023-04-01T11:59:12.485Z,2.83
2023-04-01T12:01:57.108Z,2.85
2023-04-01T12:04:45.174Z,3.00
2023-04-01T12:07:22.725Z,3.60
2023-04-01T12:10:26.641Z,3.30
2023-04-01T12:13:08.220Z,3.20
2023-04-01T12:16:02.006Z,3.38
2023-04-01T12:18:47.289Z,3.10
2023-04-01T12:21:49.224Z,3.30
2023-04-01T12:24:41.614Z,3.40
2023-04-01T12:27:07.859Z,3.05
2023-04-01T12:29:37.199Z,3.10
2023-04-01T12:32:31.037Z,2.75
2023-04-01T12:35:18.585Z,2.83
2023-04-01T12:38:08.734Z,3.15
2023-04-01T12:40:40.700Z,3.03
2023-04-01T12:43:35.034Z,3.13
2023-04-01T12:46:26.206Z,3.20
2023-04-01T12:49:02.077Z,3.72
2023-04-01T12:51:55.631Z,3.30
2023-04-01T12:54:37.482Z,3.58
2023-04-01T12:57:28.763Z,3.28
2023-04-01T13:02:42.184Z,3.35
2023-04-01T13:05:33.607Z,3.67
2023-04-01T13:08:26.552Z,3.72
2023-04-01T13:11:07.712Z,5.57
2023-04-01T13:13:59.778Z,7.18
2023-04-01T13:16:38.000Z,7.95
2023-04-01T13:19:11.501Z,7.53
2023-04-01T13:22:02.476Z,7.75
2023-04-01T13:24:37.947Z,7.05
2023-04-01T13:27:22.493Z,7.07
2023-04-01T13:30:08.562Z,10.57
2023-04-01T13:33:02.879Z,6.68
2023-04-01T13:35:50.681Z,7.32
2023-04-01T13:38:23.133Z,6.95
2023-04-01T13:41:03.901Z,7.65
2023-04-01T13:43:35.631Z,6.93
2023-04-01T13:46:01.889Z,6.22
2023-04-01T13:48:51.463Z,6.57
2023-04-01T13:51:20.698Z,6.40
2023-04-01T13:54:05.160Z,7.38
2023-04-01T13:56:40.520Z,6.78
2023-04-01T13:59:47.002Z,6.57
2023-04-01T14:02:34.499Z,5.75
2023-04-01T14:05:42.151Z,6.63
2023-04-01T14:08:40.377Z,6.47
2023-04-01T14:11:46.243Z,6.60
2023-04-01T14:14:18.403Z,7.50
2023-04-01T14:17:18.874Z,7.22
2023-04-01T14:20:05.430Z,6.38
2023-04-01T14:22:49.924Z,6.15
2023-04-01T14:25:37.164Z,5.63
2023-04-01T14:28:38.693Z,6.07
2023-04-01T14:31:20.322Z,6.55
2023-04-01T14:33:53.938Z,5.80
2023-04-01T14:36:48.021Z,5.65
2023-04-01T14:39:30.907Z,5.28
2023-04-01T14:42:33.616Z,5.20
2023-04-01T14:45:40.596Z,4.75
2023-04-01T14:48:43.743Z,5.10
2023-04-01T14:51:30.946Z,5.80
2023-04-01T14:54:09.970Z,5.00
2023-04-01T14:56:45.409Z,5.30
2023-04-01T14:59:28.558Z,5.30
2023-04-01T15:02:18.438Z,4.93
2023-04-01T15:04:55.295Z,4.30
2023-04-01T15:07:52.830Z,4.30
2023-04-01T15:10:54.214Z,3.88
2023-04-01T15:13:29.629Z,4.85
2023-04-01T15:15:55.942Z,5.70
2023-04-01T15:18:38.194Z,5.90
2023-04-01T15:21:41.349Z,6.68
2023-04-01T15:24:17.917Z,5.82
2023-04-01T15:26:53.236Z,5.35
2023-04-01T15:29:41.200Z,4.80
2023-04-01T15:32:38.356Z,5.35
2023-04-01T15:35:18.699Z,5.55
2023-04-01T15:37:58.131Z,4.45
2023-04-01T15:43:33.467Z,3.88
2023-04-01T15:46:26.663Z,4.40
2023-04-01T15:49:11.738Z,4.32
2023-04-01T15:51:44.134Z,4.90
2023-04-01T15:54:33.851Z,4.95
2023-04-01T15:57:15.675Z,6.00
2023-04-01T16:00:01.550Z,5.35
2023-04-01T16:02:43.033Z,5.03
2023-04-01T16:05:12.132Z,5.13
2023-04-01T16:07:44.901Z,5.10
2023-04-01T16:10:33.160Z,5.63
2023-04-01T16:13:19.488Z,5.07
2023-04-01T16:15:57.125Z,6.28
2023-04-01T16:18:40.205Z,6.68
2023-04-01T16:21:41.618Z,6.20
2023-04-01T16:24:25.176Z,7.03
2023-04-01T16:26:57.187Z,6.28
2023-04-01T16:29:56.678Z,6.07
2023-04-01T16:32:28.597Z,6.80
2023-04-01T16:35:12.982Z,6.00
2023-04-01T16:37:54.864Z,5.60
2023-04-01T16:40:21.132Z,6.15
2023-04-01T16:42:52.408Z,6.60
2023-04-01T16:45:41.192Z,5.75
2023-04-01T16:48:10.242Z,6.50
2023-04-01T16:51:00.811Z,7.18
2023-04-01T16:53:46.586Z,6.70
2023-04-01T16:56:28.429Z,7.47
2023-04-01T16:59:14.778Z,6.68
2023-04-01T17:02:06.968Z,7.60
2023-04-01T17:04:58.616Z,6.25
2023-04-01T17:10:25.569Z,6.28
2023-04-01T17:13:25.250Z,6.65
2023-04-01T17:16:01.561Z,6.82
2023-04-01T17:18:55.976Z,6.88
2023-04-01T17:21:34.180Z,6.93
2023-04-01T17:24:26.886Z,6.72
2023-04-01T17:27:07.269Z,7.30
2023-04-01T17:30:11.119Z,5.82
2023-04-01T17:35:30.950Z,6.03
2023-04-01T17:38:18.439Z,5.53
2023-04-01T17:41:02.728Z,5.80
2023-04-01T17:43:48.816Z,6.10
2023-04-01T17:46:50.751Z,5.65
2023-04-01T17:49:58.186Z,6.50
2023-04-01T17:52:47.621Z,7.03
2023-04-01T17:55:41.888Z,6.53
2023-04-01T17:58:22.697Z,7.10
2023-04-01T18:01:20.572Z,7.25
2023-04-01T18:04:01.176Z,6.32
2023-04-01T18:06:34.266Z,6.55
2023-04-01T18:09:28.444Z,7.15
2023-04-01T18:12:08.899Z,6.28
2023-04-01T18:15:05.581Z,6.00
2023-04-01T18:17:40.130Z,5.65
2023-04-01T18:20:32.967Z,5.38
2023-04-01T18:23:04.161Z,4.43
2023-04-01T18:25:45.293Z,4.90
2023-04-01T18:28:36.248Z,4.28
2023-04-01T18:31:02.510Z,4.65
2023-04-01T18:33:44.087Z,4.68
2023-04-01T18:36:19.384Z,4.00
2023-04-01T18:39:16.710Z,4.13
2023-04-01T18:42:15.590Z,4.65
2023-04-01T18:44:52.416Z,4.90
2023-04-01T18:47:37.602Z,6.10
2023-04-01T18:50:28.664Z,5.03
2023-04-01T18:53:09.413Z,4.43
2023-04-01T18:56:04.244Z,4.47
2023-04-01T18:58:50.948Z,4.40
2023-04-01T19:01:20.792Z,5.05
2023-04-01T19:03:56.299Z,4.93
2023-04-01T19:06:30.097Z,5.20
2023-04-01T19:09:13.138Z,6.85
2023-04-01T19:12:08.987Z,5.60
2023-04-01T19:14:56.960Z,5.55
2023-04-01T19:17:42.089Z,5.57
2023-04-01T19:20:22.350Z,6.20
2023-04-01T19:23:07.150Z,5.70
2023-04-01T19:25:51.365Z,5.03
2023-04-01T19:28:27.609Z,4.90
2023-04-01T19:31:19.411Z,5.85
2023-04-01T19:34:13.599Z,6.45
2023-04-01T19:36:51.492Z,4.90
2023-04-01T19:39:55.522Z,5.85
2023-04-01T19:42:43.444Z,5.80
2023-04-01T19:45:15.977Z,5.72
2023-04-01T19:47:54.423Z,6.07
2023-04-01T19:50:37.361Z,6.15
2023-04-01T19:53:18.628Z,6.15
2023-04-01T19:56:06.244Z,6.20
2023-04-01T19:58:46.139Z,6.32
2023-04-01T20:01:44.344Z,6.10
2023-04-01T20:04:17.726Z,6.32
2023-04-01T20:06:59.905Z,5.47
2023-04-01T20:09:32.053Z,6.50
2023-04-01T20:12:42.453Z,6.55
2023-04-01T20:15:42.474Z,5.72
2023-04-01T20:18:23.883Z,6.10
2023-04-01T20:21:01.316Z,6.55
2023-04-01T20:23:45.927Z,7.40
2023-04-01T20:26:13.820Z,6.72
2023-04-01T20:28:44.406Z,6.90
2023-04-01T20:31:26.374Z,7.28
2023-04-01T20:33:59.159Z,7.53
2023-04-01T20:36:53.603Z,6.00
2023-04-01T20:39:48.059Z,6.57
2023-04-01T20:42:56.849Z,6.85
2023-04-01T20:45:34.804Z,6.28
2023-04-01T20:48:01.342Z,6.88
2023-04-01T20:50:46.152Z,7.28
2023-04-01T20:53:17.388Z,6.95
2023-04-01T20:56:02.439Z,7.75
2023-04-01T20:58:47.200Z,7.25
2023-04-01T21:01:42.591Z,8.43
2023-04-01T21:04:31.562Z,6.20
2023-04-01T21:06:57.811Z,6.28
2023-04-01T21:09:33.093Z,7.25
2023-04-01T21:12:29.523Z,6.75
2023-04-01T21:15:10.700Z,6.22
2023-04-01T21:18:00.360Z,5.60
2023-04-01T21:20:42.006Z,6.10
2023-04-01T21:23:30.171Z,5.10
2023-04-01T21:26:08.734Z,6.57
2023-04-01T21:28:56.907Z,6.25
2023-04-01T21:31:26.325Z,5.65
2023-04-01T21:34:37.207Z,5.78
2023-04-01T21:37:09.252Z,5.35
2023-04-01T21:40:12.154Z,4.70
2023-04-01T21:43:02.674Z,5.05
2023-04-01T21:45:37.837Z,5.93
2023-04-01T21:48:32.800Z,5.75
2023-04-01T21:51:29.340Z,4.88
2023-04-01T21:54:17.211Z,4.90
2023-04-01T21:57:12.829Z,5.38
2023-04-01T22:00:14.936Z,5.47
2023-04-01T22:03:04.251Z,4.65
2023-04-01T22:05:44.278Z,5.18
2023-04-01T22:08:34.922Z,5.93
2023-04-01T22:11:17.488Z,5.35
2023-04-01T22:13:51.008Z,4.55
2023-04-01T22:16:28.115Z,4.80
2023-04-01T22:19:03.143Z,4.80
2023-04-01T22:21:38.497Z,4.68
2023-04-01T22:24:16.746Z,5.07
2023-04-01T22:27:01.309Z,4.47
2023-04-01T22:29:38.184Z,4.38
2023-04-01T22:32:16.368Z,4.60
2023-04-01T22:37:22.992Z,3.92
2023-04-01T22:40:21.344Z,4.32
2023-04-01T22:42:54.343Z,4.35
2023-04-01T22:45:39.640Z,4.50
2023-04-01T22:48:28.810Z,4.40
2023-04-01T22:51:04.438Z,4.30
2023-04-01T22:53:48.873Z,4.47
2023-04-01T22:56:24.327Z,4.47
2023-04-01T22:58:58.506Z,4.28
2023-04-01T23:01:30.336Z,4.22
2023-04-01T23:03:58.932Z,3.83
2023-04-01T23:06:42.183Z,3.78
2023-04-01T23:09:13.596Z,3.97
2023-04-01T23:12:00.052Z,3.75
2023-04-01T23:14:35.832Z,3.75
2023-04-01T23:17:05.407Z,3.70
2023-04-01T23:19:53.338Z,4.10
2023-04-01T23:22:29.948Z,3.38
2023-04-01T23:25:16.637Z,3.55
2023-04-01T23:27:46.009Z,3.70
2023-04-01T23:30:47.441Z,4.00
2023-04-01T23:33:19.852Z,3.45
2023-04-01T23:36:15.497Z,3.83
2023-04-01T23:38:47.913Z,3.65
2023-04-01T23:41:24.749Z,3.95
2023-04-01T23:44:00.386Z,3.50
2023-04-01T23:46:27.796Z,3.40
2023-04-01T23:48:54.536Z,4.10
2023-04-01T23:51:27.512Z,4.32
2023-04-01T23:54:04.902Z,4.00
2023-04-01T23:56:49.349Z,3.28
2023-04-01T23:59:24.403Z,3.78
